sensor_id;sensor_type;location;lat;lon;timestamp;P1;durP1;ratioP1;P2;durP2;ratioP2
50858;SDS011;36826;47.514;19.056;2022-07-30T00:00:47;3.85;;;2.72;;
50858;SDS011;36826;47.514;19.056;2022-07-30T00:03:12;3.80;;;2.80;;
50858;SDS011;36826;47.514;19.056;2022-07-30T00:05:38;4.53;;;2.70;;
50858;SDS011;36826;47.514;19.056;2022-07-30T00:08:03;4.60;;;2.80;;
50858;SDS011;36826;47.514;19.056;2022-07-30T00:10:29;3.50;;;2.95;;
50858;SDS011;36826;47.514;19.056;2022-07-30T00:12:55;4.82;;;2.97;;
50858;SDS011;36826;47.514;19.056;2022-07-30T00:15:21;4.82;;;2.70;;
50858;SDS011;36826;47.514;19.056;2022-07-30T00:17:47;4.85;;;2.63;;
50858;SDS011;36826;47.514;19.056;2022-07-30T00:20:12;4.07;;;2.78;;
50858;SDS011;36826;47.514;19.056;2022-07-30T00:22:38;3.92;;;2.47;;
50858;SDS011;36826;47.514;19.056;2022-07-30T00:25:03;3.22;;;2.92;;
50858;SDS011;36826;47.514;19.056;2022-07-30T00:27:29;3.17;;;2.78;;
50858;SDS011;36826;47.514;19.056;2022-07-30T00:29:58;2.95;;;2.47;;
50858;SDS011;36826;47.514;19.056;2022-07-30T00:32:24;4.20;;;3.00;;
50858;SDS011;36826;47.514;19.056;2022-07-30T00:34:49;4.70;;;3.10;;
50858;SDS011;36826;47.514;19.056;2022-07-30T00:37:14;3.38;;;2.80;;
50858;SDS011;36826;47.514;19.056;2022-07-30T00:39:40;5.25;;;2.92;;
50858;SDS011;36826;47.514;19.056;2022-07-30T00:42:05;3.95;;;2.65;;
50858;SDS011;36826;47.514;19.056;2022-07-30T00:44:31;3.47;;;2.60;;
50858;SDS011;36826;47.514;19.056;2022-07-30T00:46:57;4.07;;;2.97;;
50858;SDS011;36826;47.514;19.056;2022-07-30T00:49:22;3.80;;;3.00;;
50858;SDS011;36826;47.514;19.056;2022-07-30T00:51:48;4.53;;;3.00;;
50858;SDS011;36826;47.514;19.056;2022-07-30T00:54:14;3.65;;;2.80;;
50858;SDS011;36826;47.514;19.056;2022-07-30T00:56:40;5.45;;;2.78;;
50858;SDS011;36826;47.514;19.056;2022-07-30T00:59:06;5.70;;;3.00;;
50858;SDS011;36826;47.514;19.056;2022-07-30T01:01:32;4.53;;;3.00;;
50858;SDS011;36826;47.514;19.056;2022-07-30T01:03:59;3.15;;;2.83;;
50858;SDS011;36826;47.514;19.056;2022-07-30T01:06:24;3.17;;;2.80;;
50858;SDS011;36826;47.514;19.056;2022-07-30T01:08:50;3.40;;;2.85;;
50858;SDS011;36826;47.514;19.056;2022-07-30T01:11:15;3.28;;;2.50;;
50858;SDS011;36826;47.514;19.056;2022-07-30T01:13:41;4.28;;;3.08;;
50858;SDS011;36826;47.514;19.056;2022-07-30T01:16:08;3.40;;;2.90;;
50858;SDS011;36826;47.514;19.056;2022-07-30T01:18:33;3.95;;;2.70;;
50858;SDS011;36826;47.514;19.056;2022-07-30T01:21:20;3.53;;;2.70;;
50858;SDS011;36826;47.514;19.056;2022-07-30T01:23:54;6.45;;;2.97;;
50858;SDS011;36826;47.514;19.056;2022-07-30T01:26:26;6.93;;;2.70;;
50858;SDS011;36826;47.514;19.056;2022-07-30T01:28:53;3.50;;;2.60;;
50858;SDS011;36826;47.514;19.056;2022-07-30T01:31:19;4.00;;;3.03;;
50858;SDS011;36826;47.514;19.056;2022-07-30T01:33:49;3.67;;;2.75;;
50858;SDS011;36826;47.514;19.056;2022-07-30T01:36:16;4.75;;;3.28;;
50858;SDS011;36826;47.514;19.056;2022-07-30T01:38:44;3.83;;;3.40;;
50858;SDS011;36826;47.514;19.056;2022-07-30T01:41:11;3.58;;;2.95;;
50858;SDS011;36826;47.514;19.056;2022-07-30T01:43:38;3.70;;;2.50;;
50858;SDS011;36826;47.514;19.056;2022-07-30T01:46:06;4.22;;;2.60;;
50858;SDS011;36826;47.514;19.056;2022-07-30T01:48:34;4.40;;;3.22;;
50858;SDS011;36826;47.514;19.056;2022-07-30T01:51:04;3.15;;;2.85;;
50858;SDS011;36826;47.514;19.056;2022-07-30T01:53:31;3.85;;;3.10;;
50858;SDS011;36826;47.514;19.056;2022-07-30T01:56:00;3.80;;;3.10;;
50858;SDS011;36826;47.514;19.056;2022-07-30T01:58:28;4.10;;;2.88;;
50858;SDS011;36826;47.514;19.056;2022-07-30T02:00:56;4.60;;;2.95;;
50858;SDS011;36826;47.514;19.056;2022-07-30T02:03:23;4.53;;;2.90;;
50858;SDS011;36826;47.514;19.056;2022-07-30T02:05:55;3.42;;;3.13;;
50858;SDS011;36826;47.514;19.056;2022-07-30T02:08:39;4.13;;;3.50;;
50858;SDS011;36826;47.514;19.056;2022-07-30T02:11:09;3.80;;;3.10;;
50858;SDS011;36826;47.514;19.056;2022-07-30T02:14:08;3.53;;;2.92;;
50858;SDS011;36826;47.514;19.056;2022-07-30T02:16:39;3.63;;;3.20;;
50858;SDS011;36826;47.514;19.056;2022-07-30T02:19:10;4.80;;;3.17;;
50858;SDS011;36826;47.514;19.056;2022-07-30T02:21:39;3.50;;;3.20;;
50858;SDS011;36826;47.514;19.056;2022-07-30T02:24:10;3.85;;;3.55;;
50858;SDS011;36826;47.514;19.056;2022-07-30T02:26:39;4.95;;;3.10;;
50858;SDS011;36826;47.514;19.056;2022-07-30T02:31:33;3.92;;;3.13;;
50858;SDS011;36826;47.514;19.056;2022-07-30T02:34:01;3.60;;;3.17;;
50858;SDS011;36826;47.514;19.056;2022-07-30T02:36:30;4.68;;;3.03;;
50858;SDS011;36826;47.514;19.056;2022-07-30T02:38:57;3.33;;;2.90;;
50858;SDS011;36826;47.514;19.056;2022-07-30T02:41:24;4.70;;;3.35;;
50858;SDS011;36826;47.514;19.056;2022-07-30T02:43:52;5.18;;;3.15;;
50858;SDS011;36826;47.514;19.056;2022-07-30T02:46:19;4.60;;;3.58;;
50858;SDS011;36826;47.514;19.056;2022-07-30T02:48:46;4.60;;;3.50;;
50858;SDS011;36826;47.514;19.056;2022-07-30T02:51:15;5.22;;;3.50;;
50858;SDS011;36826;47.514;19.056;2022-07-30T02:53:44;3.53;;;3.05;;
50858;SDS011;36826;47.514;19.056;2022-07-30T02:56:11;3.40;;;3.10;;
50858;SDS011;36826;47.514;19.056;2022-07-30T02:58:40;4.03;;;3.53;;
50858;SDS011;36826;47.514;19.056;2022-07-30T03:03:33;4.18;;;3.38;;
50858;SDS011;36826;47.514;19.056;2022-07-30T03:05:59;4.85;;;3.20;;
50858;SDS011;36826;47.514;19.056;2022-07-30T03:08:26;5.57;;;3.25;;
50858;SDS011;36826;47.514;19.056;2022-07-30T03:10:54;4.03;;;3.42;;
50858;SDS011;36826;47.514;19.056;2022-07-30T03:13:21;3.58;;;3.03;;
50858;SDS011;36826;47.514;19.056;2022-07-30T03:15:48;4.00;;;3.20;;
50858;SDS011;36826;47.514;19.056;2022-07-30T03:18:16;5.13;;;3.23;;
50858;SDS011;36826;47.514;19.056;2022-07-30T03:20:45;5.55;;;3.53;;
50858;SDS011;36826;47.514;19.056;2022-07-30T03:23:12;4.78;;;3.20;;
50858;SDS011;36826;47.514;19.056;2022-07-30T03:25:40;4.50;;;3.22;;
50858;SDS011;36826;47.514;19.056;2022-07-30T03:28:09;3.83;;;3.30;;
50858;SDS011;36826;47.514;19.056;2022-07-30T03:30:36;3.95;;;3.03;;
50858;SDS011;36826;47.514;19.056;2022-07-30T03:33:02;5.05;;;3.25;;
50858;SDS011;36826;47.514;19.056;2022-07-30T03:35:29;3.92;;;3.20;;
50858;SDS011;36826;47.514;19.056;2022-07-30T03:37:56;4.80;;;3.13;;
50858;SDS011;36826;47.514;19.056;2022-07-30T03:40:23;4.00;;;2.90;;
50858;SDS011;36826;47.514;19.056;2022-07-30T03:42:49;3.95;;;3.03;;
50858;SDS011;36826;47.514;19.056;2022-07-30T03:45:15;3.83;;;2.70;;
50858;SDS011;36826;47.514;19.056;2022-07-30T03:47:42;4.22;;;2.78;;
50858;SDS011;36826;47.514;19.056;2022-07-30T03:50:10;4.20;;;2.67;;
50858;SDS011;36826;47.514;19.056;2022-07-30T03:52:37;3.05;;;2.72;;
50858;SDS011;36826;47.514;19.056;2022-07-30T03:55:07;5.80;;;3.17;;
50858;SDS011;36826;47.514;19.056;2022-07-30T03:57:34;3.85;;;2.85;;
50858;SDS011;36826;47.514;19.056;2022-07-30T04:00:00;4.05;;;2.65;;
50858;SDS011;36826;47.514;19.056;2022-07-30T04:02:26;4.68;;;3.08;;
50858;SDS011;36826;47.514;19.056;2022-07-30T04:04:52;3.38;;;2.85;;
50858;SDS011;36826;47.514;19.056;2022-07-30T04:07:17;3.60;;;2.63;;
50858;SDS011;36826;47.514;19.056;2022-07-30T04:09:43;4.50;;;2.92;;
50858;SDS011;36826;47.514;19.056;2022-07-30T04:12:08;3.55;;;3.03;;
50858;SDS011;36826;47.514;19.056;2022-07-30T04:14:43;4.13;;;3.10;;
50858;SDS011;36826;47.514;19.056;2022-07-30T04:17:23;3.28;;;2.60;;
50858;SDS011;36826;47.514;19.056;2022-07-30T04:19:55;5.18;;;3.10;;
50858;SDS011;36826;47.514;19.056;2022-07-30T04:22:26;5.07;;;2.90;;
50858;SDS011;36826;47.514;19.056;2022-07-30T04:24:54;4.35;;;3.33;;
50858;SDS011;36826;47.514;19.056;2022-07-30T04:27:21;5.00;;;3.15;;
50858;SDS011;36826;47.514;19.056;2022-07-30T04:32:15;4.18;;;3.00;;
50858;SDS011;36826;47.514;19.056;2022-07-30T04:34:46;5.15;;;3.00;;
50858;SDS011;36826;47.514;19.056;2022-07-30T04:37:16;3.90;;;2.63;;
50858;SDS011;36826;47.514;19.056;2022-07-30T04:39:42;3.10;;;2.80;;
50858;SDS011;36826;47.514;19.056;2022-07-30T04:42:08;4.63;;;2.90;;
50858;SDS011;36826;47.514;19.056;2022-07-30T04:44:34;5.03;;;2.58;;
50858;SDS011;36826;47.514;19.056;2022-07-30T04:47:00;2.97;;;2.63;;
50858;SDS011;36826;47.514;19.056;2022-07-30T04:49:25;3.30;;;2.70;;
50858;SDS011;36826;47.514;19.056;2022-07-30T04:51:52;3.50;;;2.60;;
50858;SDS011;36826;47.514;19.056;2022-07-30T04:54:19;4.68;;;2.92;;
50858;SDS011;36826;47.514;19.056;2022-07-30T04:56:46;3.60;;;2.65;;
50858;SDS011;36826;47.514;19.056;2022-07-30T04:59:13;3.03;;;2.65;;
50858;SDS011;36826;47.514;19.056;2022-07-30T05:01:41;4.05;;;2.85;;
50858;SDS011;36826;47.514;19.056;2022-07-30T05:04:13;3.95;;;2.75;;
50858;SDS011;36826;47.514;19.056;2022-07-30T05:06:40;3.25;;;2.45;;
50858;SDS011;36826;47.514;19.056;2022-07-30T05:09:08;4.18;;;2.70;;
50858;SDS011;36826;47.514;19.056;2022-07-30T05:11:34;3.03;;;2.50;;
50858;SDS011;36826;47.514;19.056;2022-07-30T05:14:00;4.93;;;2.85;;
50858;SDS011;36826;47.514;19.056;2022-07-30T05:16:25;7.53;;;2.88;;
50858;SDS011;36826;47.514;19.056;2022-07-30T05:18:51;3.63;;;2.65;;
50858;SDS011;36826;47.514;19.056;2022-07-30T05:21:17;5.57;;;3.00;;
50858;SDS011;36826;47.514;19.056;2022-07-30T05:23:42;6.20;;;2.83;;
50858;SDS011;36826;47.514;19.056;2022-07-30T05:26:07;4.45;;;2.60;;
50858;SDS011;36826;47.514;19.056;2022-07-30T05:28:33;3.75;;;2.63;;
50858;SDS011;36826;47.514;19.056;2022-07-30T05:30:58;6.03;;;3.03;;
50858;SDS011;36826;47.514;19.056;2022-07-30T05:33:24;3.67;;;2.50;;
50858;SDS011;36826;47.514;19.056;2022-07-30T05:35:49;5.03;;;2.90;;
50858;SDS011;36826;47.514;19.056;2022-07-30T05:38:15;3.13;;;2.67;;
50858;SDS011;36826;47.514;19.056;2022-07-30T05:40:42;2.97;;;2.58;;
50858;SDS011;36826;47.514;19.056;2022-07-30T05:43:08;4.72;;;2.90;;
50858;SDS011;36826;47.514;19.056;2022-07-30T05:45:34;3.20;;;2.30;;
50858;SDS011;36826;47.514;19.056;2022-07-30T05:47:59;3.42;;;2.80;;
50858;SDS011;36826;47.514;19.056;2022-07-30T05:50:25;3.90;;;2.38;;
50858;SDS011;36826;47.514;19.056;2022-07-30T05:52:50;3.72;;;2.00;;
50858;SDS011;36826;47.514;19.056;2022-07-30T05:55:16;4.05;;;2.25;;
50858;SDS011;36826;47.514;19.056;2022-07-30T05:57:42;3.28;;;2.10;;
50858;SDS011;36826;47.514;19.056;2022-07-30T06:00:08;3.25;;;2.22;;
50858;SDS011;36826;47.514;19.056;2022-07-30T06:02:35;3.42;;;2.25;;
50858;SDS011;36826;47.514;19.056;2022-07-30T06:05:02;4.05;;;2.33;;
50858;SDS011;36826;47.514;19.056;2022-07-30T06:07:28;2.85;;;2.55;;
50858;SDS011;36826;47.514;19.056;2022-07-30T06:09:53;4.05;;;2.83;;
50858;SDS011;36826;47.514;19.056;2022-07-30T06:12:23;4.90;;;2.72;;
50858;SDS011;36826;47.514;19.056;2022-07-30T06:14:49;3.50;;;2.38;;
50858;SDS011;36826;47.514;19.056;2022-07-30T06:17:16;2.90;;;2.60;;
50858;SDS011;36826;47.514;19.056;2022-07-30T06:19:41;3.80;;;2.67;;
50858;SDS011;36826;47.514;19.056;2022-07-30T06:22:07;3.97;;;2.40;;
50858;SDS011;36826;47.514;19.056;2022-07-30T06:24:33;5.65;;;2.50;;
50858;SDS011;36826;47.514;19.056;2022-07-30T06:26:58;4.95;;;2.80;;
50858;SDS011;36826;47.514;19.056;2022-07-30T06:29:23;4.68;;;2.40;;
50858;SDS011;36826;47.514;19.056;2022-07-30T06:31:49;3.47;;;2.55;;
50858;SDS011;36826;47.514;19.056;2022-07-30T06:34:14;3.47;;;2.53;;
50858;SDS011;36826;47.514;19.056;2022-07-30T06:36:40;3.78;;;2.90;;
50858;SDS011;36826;47.514;19.056;2022-07-30T06:39:05;4.00;;;2.80;;
50858;SDS011;36826;47.514;19.056;2022-07-30T06:41:31;4.15;;;2.70;;
50858;SDS011;36826;47.514;19.056;2022-07-30T06:43:56;3.50;;;2.45;;
50858;SDS011;36826;47.514;19.056;2022-07-30T06:46:22;4.07;;;1.90;;
50858;SDS011;36826;47.514;19.056;2022-07-30T06:48:47;2.80;;;1.70;;
50858;SDS011;36826;47.514;19.056;2022-07-30T06:51:13;3.15;;;1.90;;
50858;SDS011;36826;47.514;19.056;2022-07-30T06:53:38;2.95;;;1.52;;
50858;SDS011;36826;47.514;19.056;2022-07-30T06:56:04;2.60;;;1.60;;
50858;SDS011;36826;47.514;19.056;2022-07-30T06:58:29;7.13;;;1.70;;
50858;SDS011;36826;47.514;19.056;2022-07-30T07:00:55;2.55;;;1.73;;
50858;SDS011;36826;47.514;19.056;2022-07-30T07:03:20;2.83;;;1.45;;
50858;SDS011;36826;47.514;19.056;2022-07-30T07:05:45;2.65;;;1.65;;
50858;SDS011;36826;47.514;19.056;2022-07-30T07:08:11;4.00;;;1.80;;
50858;SDS011;36826;47.514;19.056;2022-07-30T07:10:36;2.35;;;1.70;;
50858;SDS011;36826;47.514;19.056;2022-07-30T07:13:02;2.08;;;1.50;;
50858;SDS011;36826;47.514;19.056;2022-07-30T07:15:27;3.80;;;1.77;;
50858;SDS011;36826;47.514;19.056;2022-07-30T07:17:53;2.67;;;2.08;;
50858;SDS011;36826;47.514;19.056;2022-07-30T07:20:19;2.65;;;1.50;;
50858;SDS011;36826;47.514;19.056;2022-07-30T07:22:44;2.80;;;1.63;;
50858;SDS011;36826;47.514;19.056;2022-07-30T07:25:10;6.13;;;1.52;;
50858;SDS011;36826;47.514;19.056;2022-07-30T07:27:36;3.90;;;1.40;;
50858;SDS011;36826;47.514;19.056;2022-07-30T07:30:02;3.85;;;1.50;;
50858;SDS011;36826;47.514;19.056;2022-07-30T07:32:29;4.75;;;2.88;;
50858;SDS011;36826;47.514;19.056;2022-07-30T07:34:54;6.70;;;2.20;;
50858;SDS011;36826;47.514;19.056;2022-07-30T07:37:20;4.65;;;2.00;;
50858;SDS011;36826;47.514;19.056;2022-07-30T07:39:45;5.47;;;2.15;;
50858;SDS011;36826;47.514;19.056;2022-07-30T07:42:11;3.15;;;2.08;;
50858;SDS011;36826;47.514;19.056;2022-07-30T07:44:36;2.97;;;2.10;;
50858;SDS011;36826;47.514;19.056;2022-07-30T07:47:02;3.85;;;2.70;;
50858;SDS011;36826;47.514;19.056;2022-07-30T07:49:27;2.50;;;1.80;;
50858;SDS011;36826;47.514;19.056;2022-07-30T07:51:53;4.82;;;2.00;;
50858;SDS011;36826;47.514;19.056;2022-07-30T07:54:18;3.40;;;1.95;;
50858;SDS011;36826;47.514;19.056;2022-07-30T07:56:44;3.50;;;2.95;;
50858;SDS011;36826;47.514;19.056;2022-07-30T07:59:10;3.60;;;1.95;;
50858;SDS011;36826;47.514;19.056;2022-07-30T08:01:35;3.80;;;2.30;;
50858;SDS011;36826;47.514;19.056;2022-07-30T08:04:00;3.17;;;1.60;;
50858;SDS011;36826;47.514;19.056;2022-07-30T08:06:26;3.70;;;1.80;;
50858;SDS011;36826;47.514;19.056;2022-07-30T08:08:52;1.85;;;1.73;;
50858;SDS011;36826;47.514;19.056;2022-07-30T08:11:18;2.72;;;1.88;;
50858;SDS011;36826;47.514;19.056;2022-07-30T08:13:44;3.58;;;1.98;;
50858;SDS011;36826;47.514;19.056;2022-07-30T08:16:09;3.10;;;1.60;;
50858;SDS011;36826;47.514;19.056;2022-07-30T08:18:35;4.95;;;1.90;;
50858;SDS011;36826;47.514;19.056;2022-07-30T08:21:02;2.28;;;1.90;;
50858;SDS011;36826;47.514;19.056;2022-07-30T08:23:28;2.88;;;2.05;;
50858;SDS011;36826;47.514;19.056;2022-07-30T08:25:55;21.50;;;4.80;;
50858;SDS011;36826;47.514;19.056;2022-07-30T08:28:22;3.47;;;2.83;;
50858;SDS011;36826;47.514;19.056;2022-07-30T08:30:48;6.53;;;3.20;;
50858;SDS011;36826;47.514;19.056;2022-07-30T08:33:14;6.00;;;3.75;;
50858;SDS011;36826;47.514;19.056;2022-07-30T08:35:39;6.60;;;4.28;;
50858;SDS011;36826;47.514;19.056;2022-07-30T08:38:05;6.03;;;3.92;;
50858;SDS011;36826;47.514;19.056;2022-07-30T08:40:32;4.63;;;4.22;;
50858;SDS011;36826;47.514;19.056;2022-07-30T08:45:26;5.35;;;3.55;;
50858;SDS011;36826;47.514;19.056;2022-07-30T08:47:52;4.30;;;2.92;;
50858;SDS011;36826;47.514;19.056;2022-07-30T08:50:20;3.35;;;3.05;;
50858;SDS011;36826;47.514;19.056;2022-07-30T08:52:46;3.75;;;2.58;;
50858;SDS011;36826;47.514;19.056;2022-07-30T08:55:13;3.08;;;2.47;;
50858;SDS011;36826;47.514;19.056;2022-07-30T08:57:40;3.10;;;2.40;;
50858;SDS011;36826;47.514;19.056;2022-07-30T09:00:06;3.22;;;2.50;;
50858;SDS011;36826;47.514;19.056;2022-07-30T09:02:33;2.78;;;2.53;;
50858;SDS011;36826;47.514;19.056;2022-07-30T09:04:58;4.60;;;3.03;;
50858;SDS011;36826;47.514;19.056;2022-07-30T09:07:24;5.70;;;2.88;;
50858;SDS011;36826;47.514;19.056;2022-07-30T09:09:50;3.28;;;2.55;;
50858;SDS011;36826;47.514;19.056;2022-07-30T09:15:09;3.40;;;2.67;;
50858;SDS011;36826;47.514;19.056;2022-07-30T09:17:45;2.90;;;2.50;;
50858;SDS011;36826;47.514;19.056;2022-07-30T09:20:23;3.45;;;2.85;;
50858;SDS011;36826;47.514;19.056;2022-07-30T09:22:52;3.50;;;2.97;;
50858;SDS011;36826;47.514;19.056;2022-07-30T09:28:00;4.35;;;3.60;;
50858;SDS011;36826;47.514;19.056;2022-07-30T09:30:26;3.38;;;3.08;;
50858;SDS011;36826;47.514;19.056;2022-07-30T09:32:54;4.25;;;2.97;;
50858;SDS011;36826;47.514;19.056;2022-07-30T09:35:21;5.30;;;2.97;;
50858;SDS011;36826;47.514;19.056;2022-07-30T09:37:55;8.75;;;3.17;;
50858;SDS011;36826;47.514;19.056;2022-07-30T09:40:23;5.45;;;3.15;;
50858;SDS011;36826;47.514;19.056;2022-07-30T09:42:48;6.18;;;3.72;;
50858;SDS011;36826;47.514;19.056;2022-07-30T09:45:29;5.45;;;4.60;;
50858;SDS011;36826;47.514;19.056;2022-07-30T09:47:55;8.02;;;4.80;;
50858;SDS011;36826;47.514;19.056;2022-07-30T09:50:20;7.60;;;5.15;;
50858;SDS011;36826;47.514;19.056;2022-07-30T09:52:48;7.88;;;5.68;;
50858;SDS011;36826;47.514;19.056;2022-07-30T09:55:14;7.80;;;6.05;;
50858;SDS011;36826;47.514;19.056;2022-07-30T09:57:55;7.65;;;5.85;;
50858;SDS011;36826;47.514;19.056;2022-07-30T10:02:49;6.90;;;5.93;;
50858;SDS011;36826;47.514;19.056;2022-07-30T10:05:16;11.82;;;6.65;;
50858;SDS011;36826;47.514;19.056;2022-07-30T10:07:47;11.15;;;8.15;;
50858;SDS011;36826;47.514;19.056;2022-07-30T10:10:15;17.05;;;9.93;;
50858;SDS011;36826;47.514;19.056;2022-07-30T10:12:41;13.20;;;10.30;;
50858;SDS011;36826;47.514;19.056;2022-07-30T10:15:09;14.10;;;10.43;;
50858;SDS011;36826;47.514;19.056;2022-07-30T10:17:35;14.18;;;11.23;;
50858;SDS011;36826;47.514;19.056;2022-07-30T10:20:03;13.25;;;11.88;;
50858;SDS011;36826;47.514;19.056;2022-07-30T10:22:31;12.63;;;11.15;;
50858;SDS011;36826;47.514;19.056;2022-07-30T10:24:59;11.88;;;10.68;;
50858;SDS011;36826;47.514;19.056;2022-07-30T10:27:25;13.05;;;11.60;;
50858;SDS011;36826;47.514;19.056;2022-07-30T10:29:51;12.80;;;11.50;;
50858;SDS011;36826;47.514;19.056;2022-07-30T10:32:17;13.40;;;12.00;;
50858;SDS011;36826;47.514;19.056;2022-07-30T10:34:43;13.13;;;11.77;;
50858;SDS011;36826;47.514;19.056;2022-07-30T10:37:08;14.18;;;11.75;;
50858;SDS011;36826;47.514;19.056;2022-07-30T10:39:36;13.77;;;12.37;;
50858;SDS011;36826;47.514;19.056;2022-07-30T10:47:47;13.95;;;12.55;;
50858;SDS011;36826;47.514;19.056;2022-07-30T10:50:15;12.95;;;11.63;;
50858;SDS011;36826;47.514;19.056;2022-07-30T10:55:19;14.70;;;12.65;;
50858;SDS011;36826;47.514;19.056;2022-07-30T11:00:35;12.45;;;11.25;;
50858;SDS011;36826;47.514;19.056;2022-07-30T11:08:40;13.57;;;10.70;;
50858;SDS011;36826;47.514;19.056;2022-07-30T11:13:54;10.80;;;9.70;;
50858;SDS011;36826;47.514;19.056;2022-07-30T11:19:13;11.85;;;8.52;;
50858;SDS011;36826;47.514;19.056;2022-07-30T11:21:45;10.90;;;8.50;;
50858;SDS011;36826;47.514;19.056;2022-07-30T11:29:54;8.15;;;7.07;;
50858;SDS011;36826;47.514;19.056;2022-07-30T11:32:27;8.05;;;6.50;;
50858;SDS011;36826;47.514;19.056;2022-07-30T11:35:17;7.90;;;7.10;;
50858;SDS011;36826;47.514;19.056;2022-07-30T11:38:02;10.02;;;6.00;;
50858;SDS011;36826;47.514;19.056;2022-07-30T11:40:34;7.30;;;5.38;;
50858;SDS011;36826;47.514;19.056;2022-07-30T11:43:20;6.00;;;5.00;;
50858;SDS011;36826;47.514;19.056;2022-07-30T11:46:06;4.57;;;4.13;;
50858;SDS011;36826;47.514;19.056;2022-07-30T11:48:33;3.90;;;2.92;;
50858;SDS011;36826;47.514;19.056;2022-07-30T11:51:00;4.47;;;3.40;;
50858;SDS011;36826;47.514;19.056;2022-07-30T11:53:28;4.30;;;3.22;;
50858;SDS011;36826;47.514;19.056;2022-07-30T11:55:54;3.90;;;3.00;;
50858;SDS011;36826;47.514;19.056;2022-07-30T11:58:27;3.47;;;2.45;;
50858;SDS011;36826;47.514;19.056;2022-07-30T12:00:55;2.60;;;2.17;;
50858;SDS011;36826;47.514;19.056;2022-07-30T12:03:23;2.95;;;2.75;;
50858;SDS011;36826;47.514;19.056;2022-07-30T12:05:50;3.35;;;2.75;;
50858;SDS011;36826;47.514;19.056;2022-07-30T12:08:16;3.20;;;2.90;;
50858;SDS011;36826;47.514;19.056;2022-07-30T12:10:43;3.40;;;3.10;;
50858;SDS011;36826;47.514;19.056;2022-07-30T12:13:19;3.25;;;2.92;;
50858;SDS011;36826;47.514;19.056;2022-07-30T12:15:45;3.40;;;3.10;;
50858;SDS011;36826;47.514;19.056;2022-07-30T12:18:12;3.35;;;3.00;;
50858;SDS011;36826;47.514;19.056;2022-07-30T12:20:54;3.15;;;2.90;;
50858;SDS011;36826;47.514;19.056;2022-07-30T12:23:33;3.20;;;2.90;;
50858;SDS011;36826;47.514;19.056;2022-07-30T12:25:59;3.30;;;2.60;;
50858;SDS011;36826;47.514;19.056;2022-07-30T12:28:29;4.43;;;3.00;;
50858;SDS011;36826;47.514;19.056;2022-07-30T12:30:56;3.20;;;2.90;;
50858;SDS011;36826;47.514;19.056;2022-07-30T12:33:22;2.80;;;2.60;;
50858;SDS011;36826;47.514;19.056;2022-07-30T12:35:49;3.35;;;2.85;;
50858;SDS011;36826;47.514;19.056;2022-07-30T12:38:16;2.90;;;2.70;;
50858;SDS011;36826;47.514;19.056;2022-07-30T12:40:55;3.73;;;2.63;;
50858;SDS011;36826;47.514;19.056;2022-07-30T12:46:13;3.72;;;2.40;;
50858;SDS011;36826;47.514;19.056;2022-07-30T12:51:34;1.73;;;1.48;;
50858;SDS011;36826;47.514;19.056;2022-07-30T12:54:17;1.88;;;1.60;;
50858;SDS011;36826;47.514;19.056;2022-07-30T12:57:04;1.67;;;1.30;;
50858;SDS011;36826;47.514;19.056;2022-07-30T12:59:30;1.75;;;0.95;;
50858;SDS011;36826;47.514;19.056;2022-07-30T13:01:57;2.00;;;0.77;;
50858;SDS011;36826;47.514;19.056;2022-07-30T13:04:24;1.02;;;0.80;;
50858;SDS011;36826;47.514;19.056;2022-07-30T13:09:33;0.80;;;0.28;;
50858;SDS011;36826;47.514;19.056;2022-07-30T13:11:59;0.90;;;0.20;;
50858;SDS011;36826;47.514;19.056;2022-07-30T13:14:24;0.82;;;0.32;;
50858;SDS011;36826;47.514;19.056;2022-07-30T13:16:51;1.58;;;0.40;;
50858;SDS011;36826;47.514;19.056;2022-07-30T13:19:19;0.80;;;0.30;;
50858;SDS011;36826;47.514;19.056;2022-07-30T13:21:46;1.85;;;0.30;;
50858;SDS011;36826;47.514;19.056;2022-07-30T13:24:12;2.72;;;0.30;;
50858;SDS011;36826;47.514;19.056;2022-07-30T13:26:38;0.75;;;0.20;;
50858;SDS011;36826;47.514;19.056;2022-07-30T13:29:03;1.52;;;0.30;;
50858;SDS011;36826;47.514;19.056;2022-07-30T13:31:29;1.58;;;0.40;;
50858;SDS011;36826;47.514;19.056;2022-07-30T13:33:55;0.88;;;0.30;;
50858;SDS011;36826;47.514;19.056;2022-07-30T13:36:20;0.88;;;0.32;;
50858;SDS011;36826;47.514;19.056;2022-07-30T13:38:46;0.77;;;0.30;;
50858;SDS011;36826;47.514;19.056;2022-07-30T13:41:12;0.93;;;0.30;;
50858;SDS011;36826;47.514;19.056;2022-07-30T13:43:38;1.13;;;0.30;;
50858;SDS011;36826;47.514;19.056;2022-07-30T13:46:04;0.88;;;0.20;;
50858;SDS011;36826;47.514;19.056;2022-07-30T13:48:30;1.42;;;0.20;;
50858;SDS011;36826;47.514;19.056;2022-07-30T13:50:57;0.70;;;0.25;;
50858;SDS011;36826;47.514;19.056;2022-07-30T13:53:24;2.25;;;0.30;;
50858;SDS011;36826;47.514;19.056;2022-07-30T13:55:51;0.60;;;0.20;;
50858;SDS011;36826;47.514;19.056;2022-07-30T13:58:16;0.98;;;0.30;;
50858;SDS011;36826;47.514;19.056;2022-07-30T14:00:42;1.17;;;0.45;;
50858;SDS011;36826;47.514;19.056;2022-07-30T14:03:09;1.75;;;0.80;;
50858;SDS011;36826;47.514;19.056;2022-07-30T14:05:36;1.38;;;0.50;;
50858;SDS011;36826;47.514;19.056;2022-07-30T14:08:03;1.25;;;0.30;;
50858;SDS011;36826;47.514;19.056;2022-07-30T14:10:29;1.70;;;0.30;;
50858;SDS011;36826;47.514;19.056;2022-07-30T14:12:55;1.63;;;0.40;;
50858;SDS011;36826;47.514;19.056;2022-07-30T14:15:22;0.95;;;0.20;;
50858;SDS011;36826;47.514;19.056;2022-07-30T14:17:49;0.88;;;0.20;;
50858;SDS011;36826;47.514;19.056;2022-07-30T14:20:16;1.25;;;0.20;;
50858;SDS011;36826;47.514;19.056;2022-07-30T14:22:44;1.27;;;0.20;;
50858;SDS011;36826;47.514;19.056;2022-07-30T14:25:10;0.50;;;0.10;;
50858;SDS011;36826;47.514;19.056;2022-07-30T14:27:36;0.75;;;0.10;;
50858;SDS011;36826;47.514;19.056;2022-07-30T14:30:03;0.95;;;0.22;;
50858;SDS011;36826;47.514;19.056;2022-07-30T14:32:31;0.60;;;0.10;;
50858;SDS011;36826;47.514;19.056;2022-07-30T14:34:56;0.73;;;0.17;;
50858;SDS011;36826;47.514;19.056;2022-07-30T14:37:22;0.75;;;0.22;;
50858;SDS011;36826;47.514;19.056;2022-07-30T14:39:47;0.80;;;0.32;;
50858;SDS011;36826;47.514;19.056;2022-07-30T14:42:13;0.57;;;0.20;;
50858;SDS011;36826;47.514;19.056;2022-07-30T14:44:39;0.40;;;0.10;;
50858;SDS011;36826;47.514;19.056;2022-07-30T14:47:04;1.23;;;0.30;;
50858;SDS011;36826;47.514;19.056;2022-07-30T14:49:30;0.60;;;0.20;;
50858;SDS011;36826;47.514;19.056;2022-07-30T14:51:55;0.70;;;0.30;;
50858;SDS011;36826;47.514;19.056;2022-07-30T14:54:21;0.88;;;0.40;;
50858;SDS011;36826;47.514;19.056;2022-07-30T14:56:47;1.40;;;0.30;;
50858;SDS011;36826;47.514;19.056;2022-07-30T14:59:13;1.17;;;0.30;;
50858;SDS011;36826;47.514;19.056;2022-07-30T15:01:39;2.45;;;0.35;;
50858;SDS011;36826;47.514;19.056;2022-07-30T15:04:05;1.52;;;0.30;;
50858;SDS011;36826;47.514;19.056;2022-07-30T15:06:33;0.73;;;0.40;;
50858;SDS011;36826;47.514;19.056;2022-07-30T15:09:00;0.80;;;0.40;;
50858;SDS011;36826;47.514;19.056;2022-07-30T15:11:26;0.95;;;0.50;;
50858;SDS011;36826;47.514;19.056;2022-07-30T15:13:51;0.70;;;0.30;;
50858;SDS011;36826;47.514;19.056;2022-07-30T15:16:17;0.93;;;0.30;;
50858;SDS011;36826;47.514;19.056;2022-07-30T15:18:43;0.90;;;0.40;;
50858;SDS011;36826;47.514;19.056;2022-07-30T15:21:09;0.88;;;0.40;;
50858;SDS011;36826;47.514;19.056;2022-07-30T15:23:36;0.85;;;0.32;;
50858;SDS011;36826;47.514;19.056;2022-07-30T15:26:02;0.80;;;0.35;;
50858;SDS011;36826;47.514;19.056;2022-07-30T15:28:27;0.88;;;0.30;;